^^
Saratoga-Weather Station Historical Data
Daily Summary for February 3, 2021 Units:  Metric    English   Both
Daily Weekly Monthly Yearly Custom
  High: Low: Average:
Temperature: 25.7 °C 13.5 °C 20 °C
Dew Point: 18.3 °C 12.7 °C 15.1 °C
Humidity: 96% 52% 75%
Wind Speed: 6.4km/h 0km/h 1.5km/h
Wind Gust: 12.9km/h - -
Wind- - SSW
Pressure: 1015.9 hPa 1011.9 hPa -
Precipitation: 0.0 mm    
Historical Graphs
 
 
Tabular Data for February 3, 2021
Time Temperature Dew Point Pressure Wind Wind Speed Wind Gust Humidity Rainfall Rate (Hourly) solar
00:00 16.5 °C 13.6 °C 1015.9 hPa Calm     83% 0.0 mm 0 W/m2
00:05 16.4 °C 13.7 °C 1015.9 hPa Calm     84% 0.0 mm 0 W/m2
00:10 16.4 °C 13.7 °C 1015.9 hPa Calm     84% 0.0 mm 0 W/m2
00:15 16.3 °C 13.8 °C 1015.9 hPa Calm     85% 0.0 mm 0 W/m2
00:20 16.3 °C 13.8 °C 1015.9 hPa Calm     85% 0.0 mm 0 W/m2
00:25 16.2 °C 13.7 °C 1015.9 hPa Calm     85% 0.0 mm 0 W/m2
00:30 16.2 °C 13.9 °C 1015.9 hPa Calm     86% 0.0 mm 0 W/m2
00:35 16.1 °C 13.8 °C 1015.9 hPa Calm     86% 0.0 mm 0 W/m2
00:41 16.1 °C 13.8 °C 1015.9 hPa Calm     86% 0.0 mm 0 W/m2
00:46 16 °C 13.7 °C 1015.9 hPa Calm     86% 0.0 mm 0 W/m2
00:51 15.9 °C 13.7 °C 1015.9 hPa Calm     87% 0.0 mm 0 W/m2
00:56 15.8 °C 13.6 °C 1015.9 hPa Calm     87% 0.0 mm 0 W/m2
01:01 15.8 °C 13.6 °C 1015.9 hPa Calm     87% 0.0 mm 0 W/m2
01:06 15.7 °C 13.5 °C 1015.9 hPa Calm     87% 0.0 mm 0 W/m2
01:11 15.6 °C 13.6 °C 1015.9 hPa Calm     88% 0.0 mm 0 W/m2
01:16 15.5 °C 13.5 °C 1015.9 hPa Calm     88% 0.0 mm 0 W/m2
01:21 15.4 °C 13.4 °C 1015.9 hPa Calm     88% 0.0 mm 0 W/m2
01:26 15.3 °C 13.5 °C 1015.9 hPa Calm     89% 0.0 mm 0 W/m2
01:31 15.3 °C 13.5 °C 1015.6 hPa Calm     89% 0.0 mm 0 W/m2
01:36 15.3 °C 13.5 °C 1015.6 hPa Calm     89% 0.0 mm 0 W/m2
01:41 15.2 °C 13.4 °C 1015.6 hPa Calm     89% 0.0 mm 0 W/m2
01:46 15.2 °C 13.6 °C 1015.9 hPa Calm     90% 0.0 mm 0 W/m2
01:51 15.1 °C 13.5 °C 1015.6 hPa Calm     90% 0.0 mm 0 W/m2
01:56 15 °C 13.4 °C 1015.6 hPa Calm     90% 0.0 mm 0 W/m2
02:01 14.9 °C 13.3 °C 1015.6 hPa Calm     90% 0.0 mm 0 W/m2
02:06 14.8 °C 13.2 °C 1015.9 hPa Calm     90% 0.0 mm 0 W/m2
02:11 14.8 °C 13.3 °C 1015.6 hPa Calm     91% 0.0 mm 0 W/m2
02:16 14.7 °C 13.2 °C 1015.9 hPa Calm     91% 0.0 mm 0 W/m2
02:21 14.7 °C 13.2 °C 1015.9 hPa Calm     91% 0.0 mm 0 W/m2
02:26 14.7 °C 13.2 °C 1015.9 hPa Calm     91% 0.0 mm 0 W/m2
02:31 14.6 °C 13.3 °C 1015.9 hPa Calm     92% 0.0 mm 0 W/m2
02:36 14.6 °C 13.3 °C 1015.9 hPa Calm     92% 0.0 mm 0 W/m2
02:41 14.6 °C 13.3 °C 1015.9 hPa Calm     92% 0.0 mm 0 W/m2
02:46 14.5 °C 13.2 °C 1015.9 hPa Calm     92% 0.0 mm 0 W/m2
02:51 14.4 °C 13.1 °C 1015.9 hPa Calm     92% 0.0 mm 0 W/m2
02:56 14.4 °C 13.1 °C 1015.9 hPa Calm     92% 0.0 mm 0 W/m2
03:01 14.3 °C 13 °C 1015.9 hPa Calm     92% 0.0 mm 0 W/m2
03:06 14.3 °C 13 °C 1015.9 hPa Calm     92% 0.0 mm 0 W/m2
03:11 14.3 °C 13.2 °C 1015.9 hPa Calm     93% 0.0 mm 0 W/m2
03:16 14.2 °C 13.1 °C 1015.9 hPa Calm     93% 0.0 mm 0 W/m2
03:22 14.2 °C 13.1 °C 1015.9 hPa Calm     93% 0.0 mm 0 W/m2
03:27 14.2 °C 13.1 °C 1015.9 hPa Calm     93% 0.0 mm 0 W/m2
03:32 14.2 °C 13.1 °C 1015.9 hPa Calm     93% 0.0 mm 0 W/m2
03:37 14.1 °C 13 °C 1015.9 hPa Calm     93% 0.0 mm 0 W/m2
03:42 14.1 °C 13 °C 1015.9 hPa Calm     93% 0.0 mm 0 W/m2
03:47 14 °C 12.9 °C 1015.6 hPa Calm     93% 0.0 mm 0 W/m2
03:52 13.9 °C 12.8 °C 1015.6 hPa Calm     93% 0.0 mm 0 W/m2
03:57 13.9 °C 12.8 °C 1015.9 hPa Calm     93% 0.0 mm 0 W/m2
04:02 13.8 °C 12.7 °C 1015.6 hPa Calm     93% 0.0 mm 0 W/m2
04:07 13.8 °C 12.7 °C 1015.6 hPa Calm     93% 0.0 mm 0 W/m2
04:12 13.8 °C 12.9 °C 1015.6 hPa Calm     94% 0.0 mm 0 W/m2
04:17 13.8 °C 12.9 °C 1015.6 hPa Calm     94% 0.0 mm 0 W/m2
04:22 13.8 °C 12.9 °C 1015.6 hPa Calm     94% 0.0 mm 0 W/m2
04:27 13.7 °C 12.8 °C 1015.6 hPa Calm     94% 0.0 mm 0 W/m2
04:32 13.7 °C 12.8 °C 1015.6 hPa Calm     94% 0.0 mm 0 W/m2
04:37 13.7 °C 12.8 °C 1015.6 hPa Calm     94% 0.0 mm 0 W/m2
04:42 13.7 °C 12.8 °C 1015.6 hPa Calm     94% 0.0 mm 0 W/m2
04:47 13.7 °C 12.8 °C 1015.6 hPa Calm     94% 0.0 mm 0 W/m2
04:52 13.7 °C 12.8 °C 1015.6 hPa Calm     94% 0.0 mm 0 W/m2
04:57 13.6 °C 12.7 °C 1015.6 hPa Calm     94% 0.0 mm 0 W/m2
05:02 13.6 °C 12.7 °C 1015.6 hPa Calm     94% 0.0 mm 0 W/m2
05:07 13.6 °C 12.8 °C 1015.6 hPa Calm     95% 0.0 mm 0 W/m2
05:12 13.7 °C 12.9 °C 1015.6 hPa Calm     95% 0.0 mm 0 W/m2
05:17 13.6 °C 12.8 °C 1015.2 hPa Calm     95% 0.0 mm 0 W/m2
05:22 13.6 °C 12.8 °C 1015.2 hPa Calm     95% 0.0 mm 0 W/m2
05:27 13.5 °C 12.7 °C 1015.2 hPa Calm     95% 0.0 mm 5 W/m2
05:32 13.5 °C 12.7 °C 1015.2 hPa Calm     95% 0.0 mm 5 W/m2
05:37 13.5 °C 12.7 °C 1015.2 hPa Calm     95% 0.0 mm 7 W/m2
05:42 13.5 °C 12.7 °C 1015.2 hPa Calm     95% 0.0 mm 11 W/m2
05:47 13.6 °C 12.8 °C 1015.2 hPa Calm     95% 0.0 mm 14 W/m2
05:52 13.6 °C 12.8 °C 1015.2 hPa Calm     95% 0.0 mm 16 W/m2
05:57 13.6 °C 12.8 °C 1015.2 hPa Calm     95% 0.0 mm 21 W/m2
06:02 13.7 °C 12.9 °C 1015.2 hPa Calm     95% 0.0 mm 26 W/m2
06:07 13.7 °C 12.9 °C 1015.2 hPa Calm     95% 0.0 mm 26 W/m2
06:12 13.7 °C 12.9 °C 1015.2 hPa Calm     95% 0.0 mm 30 W/m2
06:17 13.7 °C 12.9 °C 1015.2 hPa Calm     95% 0.0 mm 32 W/m2
06:22 13.7 °C 12.9 °C 1015.2 hPa Calm     95% 0.0 mm 35 W/m2
06:27 13.7 °C 12.9 °C 1015.2 hPa Calm     95% 0.0 mm 35 W/m2
06:32 13.8 °C 13 °C 1015.2 hPa Calm     95% 0.0 mm 40 W/m2
06:37 13.8 °C 13 °C 1015.2 hPa Calm     95% 0.0 mm 42 W/m2
06:42 13.8 °C 13 °C 1015.2 hPa Calm     95% 0.0 mm 37 W/m2
06:47 13.9 °C 13.1 °C 1015.2 hPa Calm     95% 0.0 mm 37 W/m2
06:52 14 °C 13.4 °C 1015.2 hPa WSW 1.4 km/h 3.2 km/h 96% 0.0 mm 32 W/m2
06:57 14 °C 13.4 °C 1015.2 hPa Calm   1.6 km/h 96% 0.0 mm 32 W/m2
07:02 14.1 °C 13.5 °C 1015.2 hPa Calm   3.2 km/h 96% 0.0 mm 32 W/m2
07:07 14.1 °C 13.3 °C 1015.2 hPa Calm     95% 0.0 mm 46 W/m2
07:12 14.2 °C 13.4 °C 1015.2 hPa Calm   1.6 km/h 95% 0.0 mm 60 W/m2
07:17 14.3 °C 13.7 °C 1015.2 hPa Calm   1.6 km/h 96% 0.0 mm 81 W/m2
07:22 14.5 °C 13.9 °C 1015.2 hPa Calm   1.6 km/h 96% 0.0 mm 95 W/m2
07:27 14.7 °C 14.1 °C 1015.2 hPa NE 1.4 km/h 3.2 km/h 96% 0.0 mm 102 W/m2
07:32 14.8 °C 14 °C 1015.2 hPa ENE 1.4 km/h 3.2 km/h 95% 0.0 mm 111 W/m2
07:37 15.1 °C 14.3 °C 1015.2 hPa ENE 3.2 km/h 4.8 km/h 95% 0.0 mm 109 W/m2
07:42 15.2 °C 14.2 °C 1015.2 hPa NE 3.2 km/h 4.8 km/h 94% 0.0 mm 109 W/m2
07:47 15.4 °C 14.4 °C 1015.2 hPa ENE 1.4 km/h 3.2 km/h 94% 0.0 mm 125 W/m2
07:52 15.6 °C 14.5 °C 1015.2 hPa NE 1.4 km/h 6.4 km/h 93% 0.0 mm 137 W/m2
07:57 15.7 °C 14.4 °C 1015.2 hPa Calm   1.6 km/h 92% 0.0 mm 116 W/m2
08:02 15.8 °C 14.5 °C 1015.2 hPa Calm   6.4 km/h 92% 0.0 mm 123 W/m2
08:07 16 °C 14.5 °C 1015.2 hPa Calm   3.2 km/h 91% 0.0 mm 218 W/m2
08:12 16.1 °C 14.5 °C 1015.2 hPa Calm   1.6 km/h 90% 0.0 mm 174 W/m2
08:17 16.3 °C 14.7 °C 1015.2 hPa NE 3.2 km/h 3.2 km/h 90% 0.0 mm 125 W/m2
08:22 16.7 °C 14.9 °C 1015.2 hPa NE 1.4 km/h 4.8 km/h 89% 0.0 mm 100 W/m2
08:27 17 °C 15 °C 1015.2 hPa East 1.4 km/h 4.8 km/h 88% 0.0 mm 107 W/m2
08:32 17.4 °C 15 °C 1015.2 hPa NE 3.2 km/h 3.2 km/h 86% 0.0 mm 107 W/m2
08:37 17.8 °C 15.2 °C 1015.2 hPa East 3.2 km/h 4.8 km/h 85% 0.0 mm 111 W/m2
08:42 18.2 °C 15.3 °C 1015.2 hPa ENE 1.4 km/h 3.2 km/h 83% 0.0 mm 107 W/m2
08:47 18.3 °C 15.2 °C 1015.2 hPa ENE 1.4 km/h 3.2 km/h 82% 0.0 mm 109 W/m2
08:52 18.4 °C 15.3 °C 1015.2 hPa ENE 1.4 km/h 3.2 km/h 82% 0.0 mm 107 W/m2
08:57 18.6 °C 15.7 °C 1015.2 hPa East 1.4 km/h 3.2 km/h 83% 0.0 mm 113 W/m2
09:02 18.8 °C 15.5 °C 1015.2 hPa Calm   3.2 km/h 81% 0.0 mm 114 W/m2
09:07 18.9 °C 15.6 °C 1015.2 hPa ENE 1.4 km/h 4.8 km/h 81% 0.0 mm 109 W/m2
09:12 19 °C 15.5 °C 1015.2 hPa East 4.7 km/h 6.4 km/h 80% 0.0 mm 146 W/m2
09:17 19.1 °C 15.4 °C 1015.2 hPa NE 1.4 km/h 3.2 km/h 79% 0.0 mm 269 W/m2
09:22 19.3 °C 15.6 °C 1014.9 hPa NE 3.2 km/h 4.8 km/h 79% 0.0 mm 459 W/m2
09:27 19.4 °C 15.7 °C 1014.9 hPa ENE 3.2 km/h 6.4 km/h 79% 0.0 mm 473 W/m2
09:32 19.6 °C 15.5 °C 1014.9 hPa NE 4.7 km/h 8 km/h 77% 0.0 mm 499 W/m2
09:37 19.8 °C 15.7 °C 1014.9 hPa ENE 3.2 km/h 4.8 km/h 77% 0.0 mm 512 W/m2
09:42 19.8 °C 15.4 °C 1014.9 hPa NE 3.2 km/h 8 km/h 76% 0.0 mm 538 W/m2
09:47 20 °C 15.6 °C 1014.9 hPa Calm   4.8 km/h 76% 0.0 mm 552 W/m2
09:52 20.3 °C 16.1 °C 1014.9 hPa ESE 3.2 km/h 4.8 km/h 77% 0.0 mm 510 W/m2
09:57 20.6 °C 16 °C 1014.9 hPa East 1.4 km/h 4.8 km/h 75% 0.0 mm 524 W/m2
10:02 20.7 °C 15.9 °C 1014.6 hPa Calm   1.6 km/h 74% 0.0 mm 577 W/m2
10:07 21.1 °C 16.3 °C 1014.6 hPa Calm   4.8 km/h 74% 0.0 mm 584 W/m2
10:12 21.3 °C 16 °C 1014.6 hPa ENE 3.2 km/h 4.8 km/h 72% 0.0 mm 95 W/m2
10:17 21.6 °C 16.3 °C 1014.6 hPa Calm   4.8 km/h 72% 0.0 mm 162 W/m2
10:22 21.8 °C 15.9 °C 1014.6 hPa ESE 4.7 km/h 6.4 km/h 69% 0.0 mm 635 W/m2
10:27 21.9 °C 16.2 °C 1014.6 hPa ENE 1.4 km/h 6.4 km/h 70% 0.0 mm 652 W/m2
10:32 22 °C 16 °C 1014.6 hPa NE 1.4 km/h 4.8 km/h 69% 0.0 mm 671 W/m2
10:37 22.2 °C 16 °C 1014.6 hPa East 4.7 km/h 12.9 km/h 68% 0.0 mm 647 W/m2
10:42 22.3 °C 16.3 °C 1014.6 hPa ENE 3.2 km/h 4.8 km/h 69% 0.0 mm 647 W/m2
10:47 22.3 °C 15.9 °C 1014.6 hPa Calm   9.7 km/h 67% 0.0 mm 624 W/m2
10:52 22.5 °C 16.3 °C 1014.6 hPa Calm   4.8 km/h 68% 0.0 mm 633 W/m2
10:57 22.7 °C 15.8 °C 1014.6 hPa NE 4.7 km/h 9.7 km/h 65% 0.0 mm 659 W/m2
11:02 22.9 °C 16.2 °C 1014.6 hPa East 4.7 km/h 6.4 km/h 66% 0.0 mm 735 W/m2
11:07 23.1 °C 16.2 °C 1014.6 hPa Calm   9.7 km/h 65% 0.0 mm 571 W/m2
11:12 23.3 °C 15.9 °C 1014.6 hPa ESE 4.7 km/h 9.7 km/h 63% 0.0 mm 443 W/m2
11:17 23.4 °C 16.2 °C 1014.6 hPa Calm   6.4 km/h 64% 0.0 mm 483 W/m2
11:22 23.4 °C 16 °C 1014.6 hPa East 1.4 km/h 4.8 km/h 63% 0.0 mm 445 W/m2
11:27 23.6 °C 16.4 °C 1014.2 hPa North 1.4 km/h 3.2 km/h 64% 0.0 mm 536 W/m2
11:32 23.7 °C 16.2 °C 1014.2 hPa Calm   3.2 km/h 63% 0.0 mm 455 W/m2
11:37 23.9 °C 16.4 °C 1014.6 hPa ESE 1.4 km/h 4.8 km/h 63% 0.0 mm 663 W/m2
11:42 24.3 °C 16.6 °C 1014.2 hPa East 6.4 km/h 6.4 km/h 62% 0.0 mm 580 W/m2
11:47 24.3 °C 15.8 °C 1014.6 hPa SSW 1.4 km/h 4.8 km/h 59% 0.0 mm 519 W/m2
11:52 24.2 °C 15.7 °C 1014.2 hPa East 1.4 km/h 1.6 km/h 59% 0.0 mm 573 W/m2
11:57 24.1 °C 15.8 °C 1014.2 hPa SE 1.4 km/h 9.7 km/h 60% 0.0 mm 522 W/m2
12:02 24 °C 15.8 °C 1014.2 hPa Calm   3.2 km/h 60% 0.0 mm 517 W/m2
12:07 24.1 °C 15.8 °C 1014.2 hPa NW 1.4 km/h 1.6 km/h 60% 0.0 mm 615 W/m2
12:12 24.2 °C 16.2 °C 1014.2 hPa ENE 1.4 km/h 4.8 km/h 61% 0.0 mm 663 W/m2
12:17 24.4 °C 15.6 °C 1014.2 hPa NNE 1.4 km/h 3.2 km/h 58% 0.0 mm 587 W/m2
12:22 24.6 °C 15.8 °C 1014.2 hPa Calm   3.2 km/h 58% 0.0 mm 487 W/m2
12:27 24.6 °C 15.5 °C 1014.2 hPa East 3.2 km/h 9.7 km/h 57% 0.0 mm 429 W/m2
12:32 24.4 °C 15.3 °C 1014.2 hPa NW 3.2 km/h 3.2 km/h 57% 0.0 mm 383 W/m2
12:37 24.3 °C 14.7 °C 1013.9 hPa NW 1.4 km/h 9.7 km/h 55% 0.0 mm 329 W/m2
12:42 24.3 °C 15 °C 1013.9 hPa Calm   3.2 km/h 56% 0.0 mm 318 W/m2
12:47 24.3 °C 14.4 °C 1013.9 hPa Calm   3.2 km/h 54% 0.0 mm 320 W/m2
12:52 24.3 °C 15.2 °C 1013.9 hPa WSW 1.4 km/h 6.4 km/h 57% 0.0 mm 316 W/m2
12:57 24.3 °C 15.2 °C 1013.9 hPa WNW 3.2 km/h 3.2 km/h 57% 0.0 mm 292 W/m2
13:02 24.3 °C 15.2 °C 1013.9 hPa WNW 1.4 km/h 6.4 km/h 57% 0.0 mm 265 W/m2
13:07 24.3 °C 15.8 °C 1013.9 hPa Calm   3.2 km/h 59% 0.0 mm 244 W/m2
13:12 24.4 °C 15.9 °C 1013.9 hPa Calm   1.6 km/h 59% 0.0 mm 227 W/m2
13:17 24.4 °C 16.4 °C 1013.5 hPa Calm   3.2 km/h 61% 0.0 mm 216 W/m2
13:22 24.4 °C 15.9 °C 1013.5 hPa ESE 1.4 km/h 4.8 km/h 59% 0.0 mm 209 W/m2
13:27 24.3 °C 16.8 °C 1013.5 hPa Calm     63% 0.0 mm 211 W/m2
13:32 24.3 °C 15.8 °C 1013.5 hPa Calm     59% 0.0 mm 214 W/m2
13:37 24.3 °C 17.5 °C 1013.5 hPa Calm     66% 0.0 mm 225 W/m2
13:43 24.4 °C 17.6 °C 1013.5 hPa Calm     66% 0.0 mm 251 W/m2
13:48 24.4 °C 15.9 °C 1013.5 hPa Calm   1.6 km/h 59% 0.0 mm 265 W/m2
13:53 24.4 °C 16.1 °C 1013.5 hPa SW 1.4 km/h 1.6 km/h 60% 0.0 mm 276 W/m2
13:58 24.3 °C 15.5 °C 1013.5 hPa Calm     58% 0.0 mm 287 W/m2
14:03 24.4 °C 15.9 °C 1013.5 hPa Calm   3.2 km/h 59% 0.0 mm 295 W/m2
14:08 24.3 °C 15.8 °C 1013.5 hPa Calm   3.2 km/h 59% 0.0 mm 292 W/m2
14:13 24.3 °C 16.6 °C 1013.5 hPa Calm   1.6 km/h 62% 0.0 mm 285 W/m2
14:18 24.4 °C 15.9 °C 1013.5 hPa Calm   1.6 km/h 59% 0.0 mm 288 W/m2
14:23 24.4 °C 16.1 °C 1013.5 hPa West 1.4 km/h 3.2 km/h 60% 0.0 mm 294 W/m2
14:28 24.4 °C 16.9 °C 1013.5 hPa West 3.2 km/h 3.2 km/h 63% 0.0 mm 278 W/m2
14:33 24.3 °C 15.8 °C 1013.2 hPa WNW 1.4 km/h 4.8 km/h 59% 0.0 mm 271 W/m2
14:38 24.3 °C 16.3 °C 1013.2 hPa Calm   3.2 km/h 61% 0.0 mm 279 W/m2
14:43 24.2 °C 15.7 °C 1013.2 hPa NW 3.2 km/h 6.4 km/h 59% 0.0 mm 301 W/m2
14:48 24.1 °C 16.1 °C 1013.2 hPa WNW 1.4 km/h 6.4 km/h 61% 0.0 mm 325 W/m2
14:53 24.1 °C 15.8 °C 1013.2 hPa WSW 4.7 km/h 6.4 km/h 60% 0.0 mm 346 W/m2
14:58 24.1 °C 16.4 °C 1013.2 hPa West 1.4 km/h 3.2 km/h 62% 0.0 mm 411 W/m2
15:03 24.1 °C 15.8 °C 1013.2 hPa WSW 1.4 km/h 4.8 km/h 60% 0.0 mm 422 W/m2
15:08 24.2 °C 15.9 °C 1013.2 hPa West 4.7 km/h 8 km/h 60% 0.0 mm 422 W/m2
15:13 24.3 °C 15.8 °C 1013.2 hPa West 4.7 km/h 6.4 km/h 59% 0.0 mm 431 W/m2
15:18 24.4 °C 16.4 °C 1013.2 hPa West 3.2 km/h 3.2 km/h 61% 0.0 mm 439 W/m2
15:23 24.5 °C 15.7 °C 1013.2 hPa NW 3.2 km/h 4.8 km/h 58% 0.0 mm 461 W/m2
15:28 24.7 °C 15.6 °C 1013.2 hPa West 3.2 km/h 6.4 km/h 57% 0.0 mm 466 W/m2
15:33 24.8 °C 15.1 °C 1013.2 hPa West 3.2 km/h 6.4 km/h 55% 0.0 mm 497 W/m2
15:38 24.9 °C 15.2 °C 1013.2 hPa NW 4.7 km/h 4.8 km/h 55% 0.0 mm 482 W/m2
15:43 25.1 °C 15.7 °C 1013.2 hPa NW 4.7 km/h 9.7 km/h 56% 0.0 mm 432 W/m2
15:48 24.9 °C 15 °C 1013.2 hPa WSW 1.4 km/h 4.8 km/h 54% 0.0 mm 408 W/m2
15:53 24.9 °C 14.4 °C 1013.2 hPa WSW 1.4 km/h 9.7 km/h 52% 0.0 mm 418 W/m2
15:58 25 °C 14.8 °C 1012.9 hPa West 3.2 km/h 6.4 km/h 53% 0.0 mm 429 W/m2
16:03 25.1 °C 14.6 °C 1012.9 hPa West 1.4 km/h 1.6 km/h 52% 0.0 mm 466 W/m2
16:08 25.3 °C 15.6 °C 1012.9 hPa West 3.2 km/h 4.8 km/h 55% 0.0 mm 489 W/m2
16:13 25.4 °C 15.7 °C 1012.9 hPa WNW 4.7 km/h 4.8 km/h 55% 0.0 mm 545 W/m2
16:18 25.4 °C 16.3 °C 1012.9 hPa WSW 3.2 km/h 11.3 km/h 57% 0.0 mm 512 W/m2
16:23 25.4 °C 15.4 °C 1012.9 hPa WNW 3.2 km/h 6.4 km/h 54% 0.0 mm 459 W/m2
16:28 25.3 °C 15.3 °C 1012.9 hPa West 1.4 km/h 4.8 km/h 54% 0.0 mm 383 W/m2
16:33 25.4 °C 15.7 °C 1012.9 hPa West 4.7 km/h 6.4 km/h 55% 0.0 mm 729 W/m2
16:38 25.5 °C 15.2 °C 1012.9 hPa WSW 3.2 km/h 6.4 km/h 53% 0.0 mm 452 W/m2
16:43 25.4 °C 14.8 °C 1012.9 hPa Calm   9.7 km/h 52% 0.0 mm 478 W/m2
16:48 25.5 °C 15.5 °C 1012.9 hPa SSW 1.4 km/h 3.2 km/h 54% 0.0 mm 381 W/m2
16:53 25.5 °C 14.9 °C 1012.9 hPa NW 4.7 km/h 6.4 km/h 52% 0.0 mm 381 W/m2
16:58 25.4 °C 15.1 °C 1012.9 hPa WNW 4.7 km/h 9.7 km/h 53% 0.0 mm 388 W/m2
17:03 25.3 °C 15.3 °C 1012.9 hPa NW 1.4 km/h 4.8 km/h 54% 0.0 mm 364 W/m2
17:08 25.3 °C 15 °C 1012.9 hPa Calm   1.6 km/h 53% 0.0 mm 348 W/m2
17:13 25.4 °C 15.7 °C 1012.9 hPa Calm   3.2 km/h 55% 0.0 mm 350 W/m2
17:18 25.5 °C 15.2 °C 1012.9 hPa WSW 1.4 km/h 4.8 km/h 53% 0.0 mm 315 W/m2
17:23 25.4 °C 15.1 °C 1012.5 hPa WSW 3.2 km/h 4.8 km/h 53% 0.0 mm 403 W/m2
17:28 25.4 °C 15.1 °C 1012.5 hPa West 1.4 km/h 3.2 km/h 53% 0.0 mm 287 W/m2
17:33 25.4 °C 15.4 °C 1012.5 hPa Calm   4.8 km/h 54% 0.0 mm 260 W/m2
17:38 25.6 °C 15.9 °C 1012.5 hPa Calm   1.6 km/h 55% 0.0 mm 236 W/m2
17:43 25.6 °C 15.9 °C 1012.2 hPa West 1.4 km/h 3.2 km/h 55% 0.0 mm 223 W/m2
17:48 25.7 °C 16.5 °C 1012.2 hPa Calm   1.6 km/h 57% 0.0 mm 218 W/m2
17:53 25.6 °C 17 °C 1012.2 hPa Calm     59% 0.0 mm 204 W/m2
17:58 25.6 °C 17.5 °C 1012.2 hPa Calm     61% 0.0 mm 197 W/m2
18:03 25.7 °C 17.6 °C 1012.2 hPa Calm     61% 0.0 mm 188 W/m2
18:08 25.7 °C 17.6 °C 1012.2 hPa Calm     61% 0.0 mm 178 W/m2
18:13 25.7 °C 17.9 °C 1012.2 hPa Calm     62% 0.0 mm 165 W/m2
18:18 25.6 °C 18.3 °C 1011.9 hPa Calm     64% 0.0 mm 153 W/m2
18:23 25.4 °C 17.8 °C 1011.9 hPa Calm     63% 0.0 mm 135 W/m2
18:28 25.3 °C 18 °C 1011.9 hPa Calm     64% 0.0 mm 118 W/m2
18:33 25.1 °C 18.1 °C 1011.9 hPa Calm     65% 0.0 mm 105 W/m2
18:38 24.9 °C 17.9 °C 1011.9 hPa Calm     65% 0.0 mm 100 W/m2
18:43 24.7 °C 17.9 °C 1011.9 hPa Calm     66% 0.0 mm 97 W/m2
18:48 24.4 °C 17.9 °C 1011.9 hPa Calm     67% 0.0 mm 104 W/m2
18:53 24.3 °C 17.5 °C 1011.9 hPa Calm     66% 0.0 mm 98 W/m2
18:58 24.1 °C 17.1 °C 1011.9 hPa Calm     65% 0.0 mm 70 W/m2
19:03 23.8 °C 17.3 °C 1011.9 hPa West 1.4 km/h 3.2 km/h 67% 0.0 mm 54 W/m2
19:08 23.7 °C 17.2 °C 1011.9 hPa Calm   3.2 km/h 67% 0.0 mm 76 W/m2
19:13 23.6 °C 17.1 °C 1011.9 hPa Calm   1.6 km/h 67% 0.0 mm 100 W/m2
19:18 23.5 °C 17.3 °C 1011.9 hPa Calm   3.2 km/h 68% 0.0 mm 100 W/m2
19:23 23.3 °C 16.6 °C 1011.9 hPa West 4.7 km/h 4.8 km/h 66% 0.0 mm 93 W/m2
19:28 23.3 °C 16.6 °C 1011.9 hPa West 4.7 km/h 6.4 km/h 66% 0.0 mm 84 W/m2
19:33 23.3 °C 16.6 °C 1011.9 hPa West 3.2 km/h 11.3 km/h 66% 0.0 mm 79 W/m2
19:38 23.2 °C 16.5 °C 1011.9 hPa West 1.4 km/h 6.4 km/h 66% 0.0 mm 81 W/m2
19:43 23.1 °C 16.4 °C 1011.9 hPa West 4.7 km/h 9.7 km/h 66% 0.0 mm 83 W/m2
19:48 23.1 °C 16.4 °C 1011.9 hPa WNW 6.4 km/h 8 km/h 66% 0.0 mm 79 W/m2
19:53 23 °C 16.1 °C 1011.9 hPa WNW 6.4 km/h 6.4 km/h 65% 0.0 mm 69 W/m2
19:58 22.9 °C 16 °C 1011.9 hPa West 3.2 km/h 8 km/h 65% 0.0 mm 51 W/m2
20:03 22.8 °C 16.1 °C 1011.9 hPa WSW 6.4 km/h 11.3 km/h 66% 0.0 mm 33 W/m2
20:08 22.7 °C 16 °C 1011.9 hPa West 3.2 km/h 9.7 km/h 66% 0.0 mm 23 W/m2
20:13 22.6 °C 16.2 °C 1011.9 hPa West 3.2 km/h 8 km/h 67% 0.0 mm 16 W/m2
20:18 22.5 °C 16.1 °C 1011.9 hPa SW 4.7 km/h 6.4 km/h 67% 0.0 mm 12 W/m2
20:23 22.4 °C 16.2 °C 1011.9 hPa West 3.2 km/h 4.8 km/h 68% 0.0 mm 11 W/m2
20:28 22.3 °C 16.1 °C 1011.9 hPa WSW 4.7 km/h 9.7 km/h 68% 0.0 mm 9 W/m2
20:33 22.3 °C 16.1 °C 1011.9 hPa WNW 6.4 km/h 8 km/h 68% 0.0 mm 9 W/m2
20:38 22.2 °C 16 °C 1011.9 hPa WNW 3.2 km/h 9.7 km/h 68% 0.0 mm 9 W/m2
20:43 22.1 °C 16.1 °C 1011.9 hPa WSW 3.2 km/h 4.8 km/h 69% 0.0 mm 9 W/m2
20:48 22.1 °C 16.1 °C 1011.9 hPa WSW 4.7 km/h 8 km/h 69% 0.0 mm 9 W/m2
20:53 21.9 °C 16 °C 1011.9 hPa West 1.4 km/h 6.4 km/h 69% 0.0 mm 9 W/m2
20:58 21.8 °C 16.1 °C 1011.9 hPa WNW 3.2 km/h 4.8 km/h 70% 0.0 mm 7 W/m2
21:03 21.7 °C 16 °C 1011.9 hPa WNW 6.4 km/h 9.7 km/h 70% 0.0 mm 5 W/m2
21:08 21.7 °C 16 °C 1011.9 hPa West 3.2 km/h 4.8 km/h 70% 0.0 mm 0 W/m2
21:13 21.6 °C 16.1 °C 1011.9 hPa NW 1.4 km/h 6.4 km/h 71% 0.0 mm 0 W/m2
21:18 21.6 °C 16.1 °C 1011.9 hPa West 6.4 km/h 6.4 km/h 71% 0.0 mm 0 W/m2
21:23 21.6 °C 16.1 °C 1011.9 hPa West 3.2 km/h 6.4 km/h 71% 0.0 mm 0 W/m2
21:28 21.5 °C 16 °C 1011.9 hPa West 1.4 km/h 4.8 km/h 71% 0.0 mm 0 W/m2
21:33 21.5 °C 16.2 °C 1011.9 hPa West 3.2 km/h 8 km/h 72% 0.0 mm 0 W/m2
21:38 21.5 °C 16.2 °C 1011.9 hPa SW 1.4 km/h 9.7 km/h 72% 0.0 mm 0 W/m2
21:44 21.4 °C 16.1 °C 1011.9 hPa WNW 3.2 km/h 4.8 km/h 72% 0.0 mm 0 W/m2
21:49 21.5 °C 16.5 °C 1011.9 hPa Calm   9.7 km/h 73% 0.0 mm 0 W/m2
21:54 21.5 °C 16.5 °C 1012.2 hPa WNW 3.2 km/h 6.4 km/h 73% 0.0 mm 0 W/m2
21:59 21.4 °C 16.4 °C 1012.2 hPa SW 3.2 km/h 9.7 km/h 73% 0.0 mm 0 W/m2
22:04 21.4 °C 16.6 °C 1012.2 hPa WSW 4.7 km/h 9.7 km/h 74% 0.0 mm 0 W/m2
22:09 21.4 °C 16.6 °C 1012.2 hPa WSW 6.4 km/h 9.7 km/h 74% 0.0 mm 0 W/m2
22:14 21.4 °C 16.6 °C 1012.2 hPa WSW 6.4 km/h 11.3 km/h 74% 0.0 mm 0 W/m2
22:19 21.4 °C 16.8 °C 1012.2 hPa West 3.2 km/h 8 km/h 75% 0.0 mm 0 W/m2
22:24 21.3 °C 16.9 °C 1012.5 hPa WNW 4.7 km/h 6.4 km/h 76% 0.0 mm 0 W/m2
22:29 21.2 °C 16.8 °C 1012.5 hPa West 4.7 km/h 11.3 km/h 76% 0.0 mm 0 W/m2
22:34 21.1 °C 16.7 °C 1012.5 hPa WNW 4.7 km/h 6.4 km/h 76% 0.0 mm 0 W/m2
22:39 20.9 °C 16.7 °C 1012.5 hPa WNW 4.7 km/h 9.7 km/h 77% 0.0 mm 0 W/m2
22:44 20.8 °C 16.8 °C 1012.5 hPa SW 4.7 km/h 6.4 km/h 78% 0.0 mm 0 W/m2
22:49 20.8 °C 17 °C 1012.5 hPa WSW 3.2 km/h 4.8 km/h 79% 0.0 mm 0 W/m2
22:54 20.7 °C 16.9 °C 1012.5 hPa West 3.2 km/h 8 km/h 79% 0.0 mm 0 W/m2
22:59 20.6 °C 16.8 °C 1012.5 hPa Calm   6.4 km/h 79% 0.0 mm 0 W/m2
23:04 20.5 °C 16.9 °C 1012.5 hPa SW 3.2 km/h 9.7 km/h 80% 0.0 mm 0 W/m2
23:09 20.4 °C 16.8 °C 1012.5 hPa West 3.2 km/h 4.8 km/h 80% 0.0 mm 0 W/m2
23:14 20.4 °C 16.8 °C 1012.5 hPa WNW 6.4 km/h 6.4 km/h 80% 0.0 mm 0 W/m2
23:19 20.4 °C 16.8 °C 1012.5 hPa West 1.4 km/h 4.8 km/h 80% 0.0 mm 0 W/m2
23:24 20.3 °C 16.7 °C 1012.5 hPa West 3.2 km/h 3.2 km/h 80% 0.0 mm 0 W/m2
23:29 20.2 °C 16.4 °C 1012.2 hPa West 3.2 km/h 4.8 km/h 79% 0.0 mm 0 W/m2
23:34 20.2 °C 16.4 °C 1012.5 hPa West 4.7 km/h 6.4 km/h 79% 0.0 mm 0 W/m2
23:39 20.1 °C 16.3 °C 1012.2 hPa West 3.2 km/h 6.4 km/h 79% 0.0 mm 0 W/m2
23:44 20.1 °C 16.3 °C 1012.5 hPa West 4.7 km/h 4.8 km/h 79% 0.0 mm 0 W/m2
23:49 20 °C 16.2 °C 1012.2 hPa WSW 6.4 km/h 6.4 km/h 79% 0.0 mm 0 W/m2
23:54 19.9 °C 16.1 °C 1012.2 hPa West 1.4 km/h 4.8 km/h 79% 0.0 mm 0 W/m2
23:59 19.9 °C 16.1 °C 1012.5 hPa West 4.7 km/h 8 km/h 79% 0.0 mm 0 W/m2
Juneau County Weather
Compliments of Weather Underground - 4 mb